Time;durP1;ratioP1;P1;durP2;ratioP2;P2;SDS_P1;SDS_P2;PMS_P1;PMS_P2;Temp;Humidity;BMP_temperature;BMP_pressure;BME280_temperature;BME280_humidity;BME280_pressure;Samples;Min_cycle;Max_cycle;Signal;HPM_P1;HPM_P2
2022/10/09 00:00:46;;;;;;;5.93;4.93;;;10.80;99.90;;;;;;5024843;28;20651;-67
2022/10/09 00:03:13;;;;;;;4.68;4.28;;;10.70;99.90;;;;;;5029062;28;20193;-68
2022/10/09 00:05:39;;;;;;;8.65;4.90;;;10.90;99.90;;;;;;5019640;28;20617;-68
2022/10/09 00:08:05;;;;;;;7.40;5.13;;;10.80;99.90;;;;;;5027439;28;20182;-68
2022/10/09 00:10:30;;;;;;;6.50;4.60;;;10.60;99.90;;;;;;5027954;28;20544;-68
2022/10/09 00:12:56;;;;;;;5.97;5.00;;;10.80;99.90;;;;;;5027580;28;20195;-68
2022/10/09 00:15:22;;;;;;;10.00;5.47;;;10.40;99.90;;;;;;5029038;28;20748;-68
2022/10/09 00:17:48;;;;;;;5.53;5.10;;;10.40;99.90;;;;;;5030523;28;20183;-67
2022/10/09 00:20:13;;;;;;;9.70;5.33;;;10.40;99.90;;;;;;5029659;28;20522;-66
2022/10/09 00:22:39;;;;;;;6.77;5.03;;;10.50;99.90;;;;;;5020923;28;20457;-68
2022/10/09 00:25:05;;;;;;;8.00;5.27;;;10.70;99.90;;;;;;5031565;28;20859;-68
2022/10/09 00:27:31;;;;;;;5.55;4.68;;;10.30;99.90;;;;;;5029779;28;20186;-68
2022/10/09 00:29:56;;;;;;;8.17;5.30;;;10.40;99.90;;;;;;5032395;28;20660;-66
2022/10/09 00:32:22;;;;;;;6.47;5.03;;;10.30;99.90;;;;;;5032312;28;20182;-66
2022/10/09 00:34:48;;;;;;;6.33;5.67;;;10.40;99.90;;;;;;5026825;28;20193;-66
2022/10/09 00:37:13;;;;;;;6.00;4.50;;;10.40;99.90;;;;;;5030011;28;20199;-67
2022/10/09 00:39:39;;;;;;;6.67;4.40;;;10.20;99.90;;;;;;5032439;28;20211;-67
2022/10/09 00:42:04;;;;;;;5.67;4.70;;;10.30;99.90;;;;;;5027937;28;20249;-67
2022/10/09 00:44:58;;;;;;;7.77;3.90;;;10.30;99.90;;;;;;5031973;28;20753;-66
2022/10/09 00:47:30;;;;;;;6.07;4.90;;;10.30;99.90;;;;;;5027773;28;20245;-66
2022/10/09 00:50:09;;;;;;;6.32;4.53;;;10.00;99.90;;;;;;5021816;28;20286;-66
2022/10/09 00:52:34;;;;;;;6.47;4.47;;;10.10;99.90;;;;;;5032224;28;20187;-66
2022/10/09 00:55:02;;;;;;;4.83;4.43;;;10.10;99.90;;;;;;5036003;28;20199;-67
2022/10/09 00:57:31;;;;;;;5.68;4.47;;;10.10;99.90;;;;;;5025609;28;20434;-66
2022/10/09 01:00:00;;;;;;;6.10;5.50;;;10.00;99.90;;;;;;5038316;28;20233;-66
2022/10/09 01:02:26;;;;;;;5.80;5.30;;;9.90;99.90;;;;;;5045599;28;20223;-66
2022/10/09 01:04:52;;;;;;;5.67;4.40;;;10.30;99.90;;;;;;5049879;28;20254;-66
2022/10/09 01:07:48;;;;;;;5.23;4.20;;;10.10;99.90;;;;;;5031019;28;20208;-67
2022/10/09 01:10:31;;;;;;;5.40;4.63;;;10.20;99.90;;;;;;5025886;28;20215;-66
2022/10/09 01:13:16;;;;;;;7.80;5.20;;;10.00;99.90;;;;;;5029659;28;20187;-66
2022/10/09 01:15:46;;;;;;;6.75;5.50;;;10.00;99.90;;;;;;5036470;28;20238;-65
2022/10/09 01:18:31;;;;;;;6.18;5.32;;;9.90;99.90;;;;;;5039483;28;20181;-65
2022/10/09 01:21:20;;;;;;;8.13;6.55;;;10.10;99.90;;;;;;5046895;28;20206;-66
2022/10/09 01:23:54;;;;;;;6.45;5.25;;;9.70;99.90;;;;;;5023416;28;20210;-66
2022/10/09 01:26:58;;;;;;;5.25;4.60;;;9.90;99.90;;;;;;5017028;28;20211;-66
2022/10/09 01:29:29;;;;;;;5.85;5.25;;;9.70;99.90;;;;;;5039817;28;20755;-66
2022/10/09 01:31:57;;;;;;;7.18;4.72;;;9.70;99.90;;;;;;5034219;28;20193;-66
2022/10/09 01:34:23;;;;;;;7.13;5.10;;;9.90;99.90;;;;;;5037877;28;20280;-66
2022/10/09 01:36:51;;;;;;;5.07;4.68;;;9.90;99.90;;;;;;5030324;28;20753;-66
2022/10/09 01:39:21;;;;;;;5.45;4.68;;;9.70;99.90;;;;;;5037148;28;20201;-66
2022/10/09 01:41:48;;;;;;;6.03;5.43;;;9.50;99.90;;;;;;5028197;28;20214;-66
2022/10/09 01:44:20;;;;;;;5.78;4.55;;;9.80;99.90;;;;;;5029815;28;20207;-67
2022/10/09 01:46:46;;;;;;;8.38;5.55;;;9.60;99.90;;;;;;5029025;28;20206;-66
2022/10/09 01:49:17;;;;;;;5.93;5.40;;;9.60;99.90;;;;;;5030638;28;20222;-66
2022/10/09 01:51:54;;;;;;;5.82;5.30;;;9.70;99.90;;;;;;5030407;28;20182;-66
2022/10/09 01:54:31;;;;;;;6.13;4.90;;;9.80;99.90;;;;;;5031030;28;20186;-66
2022/10/09 01:57:00;;;;;;;5.75;4.72;;;9.70;99.90;;;;;;5032541;28;20213;-66
2022/10/09 01:59:28;;;;;;;6.65;5.95;;;9.40;99.90;;;;;;5030315;28;20193;-66
2022/10/09 02:01:56;;;;;;;9.32;4.80;;;9.30;99.90;;;;;;5025179;28;20179;-67
2022/10/09 02:04:23;;;;;;;6.70;4.82;;;9.50;99.90;;;;;;5038807;28;20203;-67
2022/10/09 02:06:49;;;;;;;7.50;4.85;;;9.50;99.90;;;;;;5040881;28;20245;-68
2022/10/09 02:09:17;;;;;;;6.43;4.63;;;9.50;99.90;;;;;;5041466;28;20186;-67
2022/10/09 02:11:47;;;;;;;5.28;4.72;;;9.40;99.90;;;;;;5032136;28;20186;-67
2022/10/09 02:14:12;;;;;;;6.07;5.22;;;9.40;99.90;;;;;;5044170;28;20191;-68
2022/10/09 02:16:42;;;;;;;5.33;4.83;;;9.40;99.90;;;;;;5029154;28;20278;-67
2022/10/09 02:19:31;;;;;;;6.10;4.32;;;9.50;99.90;;;;;;5029312;28;20787;-67
2022/10/09 02:22:03;;;;;;;5.88;5.30;;;9.50;99.90;;;;;;5027734;28;20201;-67
2022/10/09 02:24:29;;;;;;;5.13;4.63;;;9.20;99.90;;;;;;5030283;28;20201;-67
2022/10/09 02:26:56;;;;;;;6.72;5.25;;;9.20;99.90;;;;;;5013816;28;20281;-67
2022/10/09 02:29:23;;;;;;;6.68;5.55;;;9.30;99.90;;;;;;5042129;28;20705;-67
2022/10/09 02:31:48;;;;;;;5.50;5.00;;;9.10;99.90;;;;;;5032873;28;20194;-68
2022/10/09 02:34:18;;;;;;;7.03;4.70;;;9.20;99.90;;;;;;5042415;28;20205;-67
2022/10/09 02:36:45;;;;;;;4.70;4.30;;;9.20;99.90;;;;;;5036052;28;21255;-67
2022/10/09 02:39:11;;;;;;;6.70;5.03;;;9.10;99.90;;;;;;5029604;28;20189;-67
2022/10/09 02:41:37;;;;;;;6.68;4.60;;;9.10;99.90;;;;;;5023853;28;20188;-67
2022/10/09 02:44:03;;;;;;;6.13;4.30;;;9.10;99.90;;;;;;5045544;28;20222;-68
2022/10/09 02:46:29;;;;;;;4.82;4.35;;;8.90;99.90;;;;;;5029242;28;20198;-67
2022/10/09 02:48:55;;;;;;;7.97;4.90;;;9.10;99.90;;;;;;5040362;28;20177;-67
2022/10/09 02:51:21;;;;;;;5.80;5.10;;;9.20;99.90;;;;;;5037783;28;20922;-67
2022/10/09 02:53:46;;;;;;;8.83;4.53;;;9.10;99.90;;;;;;5040945;28;20425;-67
2022/10/09 02:56:12;;;;;;;5.27;4.40;;;8.90;99.90;;;;;;5034973;28;20641;-67
2022/10/09 02:58:38;;;;;;;4.73;4.27;;;8.80;99.90;;;;;;5041789;28;20603;-67
2022/10/09 03:01:05;;;;;;;6.45;4.80;;;9.00;99.90;;;;;;5034498;28;20836;-67
2022/10/09 03:03:31;;;;;;;5.88;4.70;;;8.90;99.90;;;;;;5034667;28;20273;-67
2022/10/09 03:06:01;;;;;;;5.32;4.57;;;9.00;99.90;;;;;;5031879;28;20658;-67
2022/10/09 03:08:27;;;;;;;4.82;4.30;;;9.00;99.90;;;;;;5026300;28;20193;-67
2022/10/09 03:10:53;;;;;;;7.20;5.50;;;8.90;99.90;;;;;;5027336;28;20182;-66
2022/10/09 03:13:18;;;;;;;5.70;4.67;;;9.00;99.90;;;;;;5026902;28;20532;-67
2022/10/09 03:15:44;;;;;;;5.17;4.67;;;8.90;99.90;;;;;;5028986;28;20758;-67
2022/10/09 03:18:10;;;;;;;6.60;4.90;;;8.90;99.90;;;;;;5027370;28;20191;-65
2022/10/09 03:20:37;;;;;;;7.80;5.20;;;8.80;99.90;;;;;;5028760;28;20201;-66
2022/10/09 03:23:02;;;;;;;5.20;4.80;;;9.00;99.90;;;;;;5027761;28;20285;-66
2022/10/09 03:25:28;;;;;;;5.87;5.30;;;9.00;99.90;;;;;;5029653;28;20727;-66
2022/10/09 03:27:53;;;;;;;5.33;4.67;;;8.60;99.90;;;;;;5019936;28;20194;-66
2022/10/09 03:30:19;;;;;;;5.13;4.63;;;8.70;99.90;;;;;;5028293;28;20186;-65
2022/10/09 03:32:44;;;;;;;6.00;4.20;;;8.60;99.90;;;;;;5027255;28;20182;-65
2022/10/09 03:35:10;;;;;;;5.07;4.67;;;8.50;99.90;;;;;;5029208;28;20270;-65
2022/10/09 03:37:36;;;;;;;5.43;4.93;;;8.70;99.90;;;;;;5024351;28;20527;-66
2022/10/09 03:40:01;;;;;;;5.40;4.90;;;8.60;99.90;;;;;;5029484;28;20186;-66
2022/10/09 03:42:27;;;;;;;5.10;4.67;;;8.60;99.90;;;;;;5019351;28;20581;-66
2022/10/09 03:44:52;;;;;;;4.43;4.03;;;8.70;99.90;;;;;;5030306;28;20225;-66
2022/10/09 03:47:18;;;;;;;7.33;4.63;;;8.60;99.90;;;;;;5018496;28;20277;-66
2022/10/09 03:49:44;;;;;;;5.67;5.03;;;8.70;99.90;;;;;;5029083;28;20244;-66
2022/10/09 03:52:09;;;;;;;6.50;5.73;;;8.60;99.90;;;;;;5017956;28;20183;-66
2022/10/09 03:54:35;;;;;;;5.50;4.47;;;8.60;99.90;;;;;;5034581;28;20608;-66
2022/10/09 03:57:00;;;;;;;5.53;5.03;;;8.50;99.90;;;;;;5029441;28;20289;-66
2022/10/09 03:59:26;;;;;;;9.73;5.10;;;8.50;99.90;;;;;;5032167;28;20587;-66
2022/10/09 04:01:52;;;;;;;6.93;4.27;;;8.60;99.90;;;;;;5036687;28;20195;-66
2022/10/09 04:04:17;;;;;;;5.47;4.97;;;8.60;99.90;;;;;;5037654;28;20611;-67
2022/10/09 04:06:43;;;;;;;7.90;4.50;;;8.60;99.90;;;;;;5029522;28;20216;-67
2022/10/09 04:09:09;;;;;;;7.05;5.20;;;8.60;99.90;;;;;;5025350;28;20195;-67
2022/10/09 04:11:35;;;;;;;5.53;4.50;;;8.40;99.90;;;;;;5028374;28;20588;-66
2022/10/09 04:14:01;;;;;;;5.50;4.37;;;8.70;99.90;;;;;;5029379;28;20186;-66
2022/10/09 04:16:26;;;;;;;5.18;4.68;;;8.60;99.90;;;;;;5031673;28;20202;-66
2022/10/09 04:18:52;;;;;;;8.27;4.80;;;8.40;99.90;;;;;;5033015;28;20198;-66
2022/10/09 04:21:17;;;;;;;6.17;4.70;;;8.50;99.90;;;;;;5032444;28;20198;-66
2022/10/09 04:23:43;;;;;;;5.27;4.77;;;8.50;99.90;;;;;;5024683;28;20190;-67
2022/10/09 04:26:11;;;;;;;6.13;4.93;;;8.40;99.90;;;;;;5031410;28;20259;-66
2022/10/09 04:28:36;;;;;;;7.15;4.50;;;8.50;99.90;;;;;;5030435;28;20190;-66
2022/10/09 04:31:03;;;;;;;6.27;4.83;;;8.50;99.90;;;;;;5031154;28;20175;-66
2022/10/09 04:33:28;;;;;;;4.90;4.40;;;8.50;99.90;;;;;;5032504;28;20175;-66
2022/10/09 04:35:55;;;;;;;6.43;4.33;;;8.40;99.90;;;;;;5029889;28;20245;-66
2022/10/09 04:38:22;;;;;;;8.55;4.30;;;8.30;99.90;;;;;;5028623;28;21033;-66
2022/10/09 04:40:56;;;;;;;5.28;4.75;;;8.20;99.90;;;;;;5029247;28;20190;-66
2022/10/09 04:43:21;;;;;;;6.13;5.35;;;8.10;99.90;;;;;;5027682;28;20183;-66
2022/10/09 04:45:47;;;;;;;4.90;4.50;;;8.40;99.90;;;;;;5028327;28;20233;-66
2022/10/09 04:48:12;;;;;;;5.20;4.70;;;8.00;99.90;;;;;;5031573;28;20189;-66
2022/10/09 04:50:38;;;;;;;6.30;4.70;;;8.20;99.90;;;;;;5031363;28;20182;-65
2022/10/09 04:53:04;;;;;;;6.60;4.90;;;8.10;99.90;;;;;;5027809;28;20241;-66
2022/10/09 04:55:29;;;;;;;5.67;4.80;;;8.30;99.90;;;;;;5031114;28;20210;-66
2022/10/09 04:57:55;;;;;;;4.93;4.20;;;8.10;99.90;;;;;;5025051;28;20205;-67
2022/10/09 05:00:21;;;;;;;6.30;4.97;;;8.00;99.90;;;;;;5031364;28;20729;-67
2022/10/09 05:02:46;;;;;;;6.53;5.70;;;8.00;99.90;;;;;;5030024;28;20683;-67
2022/10/09 05:05:12;;;;;;;5.73;4.80;;;8.20;99.90;;;;;;5026297;28;20210;-66
2022/10/09 05:07:38;;;;;;;7.07;4.80;;;8.10;99.90;;;;;;5029910;28;20191;-66
2022/10/09 05:10:04;;;;;;;4.97;4.57;;;8.00;99.90;;;;;;5028285;28;20232;-67
2022/10/09 05:12:30;;;;;;;7.35;5.05;;;8.40;99.90;;;;;;5026942;28;20670;-66
2022/10/09 05:14:55;;;;;;;7.07;4.20;;;8.00;99.90;;;;;;5029803;28;20198;-66
2022/10/09 05:17:21;;;;;;;4.87;4.33;;;8.40;99.90;;;;;;5031115;28;20224;-66
2022/10/09 05:19:46;;;;;;;4.87;4.23;;;8.20;99.90;;;;;;5031955;28;20200;-66
2022/10/09 05:22:12;;;;;;;5.63;5.00;;;8.10;99.90;;;;;;5028573;28;20199;-66
2022/10/09 05:24:38;;;;;;;8.70;5.00;;;8.10;99.90;;;;;;5030017;28;20246;-67
2022/10/09 05:27:03;;;;;;;5.27;4.47;;;8.00;99.90;;;;;;5031105;28;20244;-66
2022/10/09 05:29:29;;;;;;;5.30;4.80;;;8.00;99.90;;;;;;5030711;28;20210;-66
2022/10/09 05:31:54;;;;;;;6.13;4.20;;;7.90;99.90;;;;;;5029335;28;20182;-67
2022/10/09 05:34:20;;;;;;;4.67;4.27;;;8.10;99.90;;;;;;5028444;28;20240;-67
2022/10/09 05:36:46;;;;;;;5.13;4.50;;;7.90;99.90;;;;;;5030031;28;20210;-66
2022/10/09 05:39:12;;;;;;;6.50;4.47;;;7.90;99.90;;;;;;5029776;28;20244;-66
2022/10/09 05:41:37;;;;;;;7.13;4.80;;;8.00;99.90;;;;;;5028544;28;20185;-66
2022/10/09 05:44:03;;;;;;;6.63;4.70;;;8.00;99.90;;;;;;5031897;28;20465;-67
2022/10/09 05:46:29;;;;;;;4.83;4.43;;;8.10;99.90;;;;;;5028041;28;20202;-66
2022/10/09 05:48:57;;;;;;;10.57;4.60;;;8.10;99.90;;;;;;5022602;28;20446;-66
2022/10/09 05:51:29;;;;;;;5.35;4.25;;;8.00;99.90;;;;;;5027133;28;21032;-66
2022/10/09 05:53:55;;;;;;;6.57;4.35;;;8.00;99.90;;;;;;5028728;28;20213;-66
2022/10/09 05:56:23;;;;;;;5.03;4.53;;;8.00;99.90;;;;;;5046298;28;20235;-67
2022/10/09 05:58:57;;;;;;;6.22;4.57;;;8.10;99.90;;;;;;5029780;28;20197;-67
2022/10/09 06:01:25;;;;;;;4.45;4.05;;;8.00;99.90;;;;;;5026194;28;20185;-67
2022/10/09 06:03:52;;;;;;;6.65;5.00;;;8.00;99.90;;;;;;5028808;28;20182;-66
2022/10/09 06:06:20;;;;;;;6.47;5.18;;;7.90;99.90;;;;;;5024995;28;20340;-66
2022/10/09 06:08:45;;;;;;;5.18;4.68;;;7.90;99.90;;;;;;5030846;28;20182;-66
2022/10/09 06:11:33;;;;;;;6.97;5.00;;;8.10;99.90;;;;;;5027907;28;20204;-66
2022/10/09 06:14:01;;;;;;;6.10;4.50;;;8.30;99.90;;;;;;5028247;28;20178;-66
2022/10/09 06:16:29;;;;;;;5.70;4.88;;;8.20;99.90;;;;;;5029138;28;20221;-66
2022/10/09 06:18:55;;;;;;;9.07;4.57;;;8.20;99.90;;;;;;5031327;28;20212;-66
2022/10/09 06:21:22;;;;;;;7.03;4.50;;;8.20;99.90;;;;;;5023432;28;20266;-66
2022/10/09 06:23:50;;;;;;;8.05;4.40;;;8.10;99.90;;;;;;5029074;28;20185;-67
2022/10/09 06:26:15;;;;;;;5.80;5.20;;;8.00;99.90;;;;;;5027027;28;20515;-66
2022/10/09 06:28:41;;;;;;;5.10;4.60;;;7.90;99.90;;;;;;5028867;28;20182;-65
2022/10/09 06:31:09;;;;;;;9.07;5.30;;;8.00;99.90;;;;;;5027227;28;20270;-66
2022/10/09 06:33:37;;;;;;;12.52;5.43;;;8.10;99.90;;;;;;5026453;28;20190;-66
2022/10/09 06:36:06;;;;;;;5.47;4.10;;;7.90;99.90;;;;;;5026662;28;20256;-66
2022/10/09 06:38:35;;;;;;;7.00;4.68;;;8.20;99.90;;;;;;5026518;28;20806;-66
2022/10/09 06:41:06;;;;;;;7.07;4.95;;;8.00;99.90;;;;;;5025551;28;20191;-66
2022/10/09 06:43:32;;;;;;;5.93;5.00;;;8.00;99.90;;;;;;5027482;28;20718;-66
2022/10/09 06:46:07;;;;;;;5.30;4.80;;;8.30;99.90;;;;;;5028803;28;20222;-66
2022/10/09 06:48:34;;;;;;;5.10;4.40;;;8.40;99.90;;;;;;5039851;28;20185;-66
2022/10/09 06:51:12;;;;;;;6.85;5.05;;;8.20;99.90;;;;;;5031278;28;20258;-66
2022/10/09 06:53:40;;;;;;;5.85;5.25;;;8.40;99.90;;;;;;5026261;28;20262;-66
2022/10/09 06:56:07;;;;;;;7.20;6.38;;;8.40;99.90;;;;;;5028360;28;21186;-65
2022/10/09 06:58:33;;;;;;;5.22;4.68;;;8.40;99.90;;;;;;5020834;28;20178;-66
2022/10/09 07:01:08;;;;;;;6.45;5.30;;;8.40;99.90;;;;;;5021886;28;20186;-66
2022/10/09 07:03:35;;;;;;;6.32;5.70;;;8.40;99.90;;;;;;5028966;28;20185;-66
2022/10/09 07:06:09;;;;;;;6.28;5.35;;;8.60;99.90;;;;;;5028674;28;20229;-66
2022/10/09 07:08:36;;;;;;;6.32;5.70;;;8.90;99.90;;;;;;5028782;28;20344;-65
2022/10/09 07:11:09;;;;;;;6.18;5.55;;;8.80;99.90;;;;;;5027558;28;20553;-70
2022/10/09 07:13:35;;;;;;;7.30;5.47;;;9.10;99.90;;;;;;5026616;28;20196;-66
2022/10/09 07:16:01;;;;;;;9.80;5.60;;;9.20;99.90;;;;;;5026800;28;20202;-66
2022/10/09 07:18:26;;;;;;;6.53;5.87;;;8.80;99.90;;;;;;5027544;28;20183;-66
2022/10/09 07:20:52;;;;;;;7.90;6.10;;;9.40;99.90;;;;;;5022658;28;20237;-66
2022/10/09 07:23:17;;;;;;;6.07;5.47;;;9.50;99.90;;;;;;5029436;28;20662;-66
2022/10/09 07:25:43;;;;;;;6.50;5.90;;;9.60;99.90;;;;;;5032292;28;20221;-66
2022/10/09 07:28:08;;;;;;;8.07;6.60;;;9.50;99.90;;;;;;5032158;28;20231;-66
2022/10/09 07:30:37;;;;;;;9.40;6.50;;;9.60;99.90;;;;;;5033360;28;20555;-66
2022/10/09 07:33:03;;;;;;;7.40;6.53;;;9.90;99.90;;;;;;5033108;28;20194;-66
2022/10/09 07:35:29;;;;;;;7.03;6.13;;;9.90;99.90;;;;;;5028017;28;20213;-66
2022/10/09 07:37:54;;;;;;;7.50;6.17;;;10.10;99.90;;;;;;5024896;28;20252;-66
2022/10/09 07:40:20;;;;;;;9.97;6.40;;;10.10;99.90;;;;;;5033354;28;20170;-66
2022/10/09 07:42:45;;;;;;;6.43;5.83;;;10.40;99.90;;;;;;5034139;28;20186;-66
2022/10/09 07:45:11;;;;;;;7.57;6.83;;;10.30;99.90;;;;;;5034282;28;20291;-66
2022/10/09 07:47:36;;;;;;;7.73;6.90;;;10.30;99.90;;;;;;5035708;28;20171;-66
2022/10/09 07:50:02;;;;;;;8.53;6.80;;;10.30;99.90;;;;;;5037960;28;20263;-66
2022/10/09 07:52:28;;;;;;;9.67;7.17;;;10.30;99.90;;;;;;5040757;28;20185;-66
2022/10/09 07:54:53;;;;;;;7.90;7.10;;;10.50;99.90;;;;;;5042800;28;20199;-67
2022/10/09 07:57:19;;;;;;;8.77;6.80;;;10.50;99.90;;;;;;5037064;28;20230;-66
2022/10/09 07:59:44;;;;;;;7.90;7.00;;;10.60;99.90;;;;;;5035723;28;20191;-67
2022/10/09 08:02:10;;;;;;;7.33;6.60;;;11.10;99.90;;;;;;5043487;28;20662;-67
2022/10/09 08:04:36;;;;;;;7.43;6.63;;;11.20;99.90;;;;;;5048669;28;20215;-67
2022/10/09 08:07:02;;;;;;;7.63;6.75;;;11.10;99.90;;;;;;5033737;28;20729;-66
2022/10/09 08:09:27;;;;;;;6.93;6.10;;;11.40;99.90;;;;;;5028211;28;20235;-67
2022/10/09 08:11:53;;;;;;;7.93;6.60;;;11.40;99.90;;;;;;5027999;28;20230;-67
2022/10/09 08:14:18;;;;;;;6.47;5.60;;;11.50;99.90;;;;;;5029767;28;20255;-66
2022/10/09 08:16:44;;;;;;;7.97;5.70;;;11.80;99.90;;;;;;5036094;28;20211;-67
2022/10/09 08:19:10;;;;;;;8.33;5.67;;;11.70;99.90;;;;;;5040038;28;20670;-67
2022/10/09 08:21:35;;;;;;;7.67;5.33;;;11.90;99.90;;;;;;5048944;28;20274;-67
2022/10/09 08:24:01;;;;;;;5.97;5.37;;;12.30;99.90;;;;;;5046715;28;20654;-67
2022/10/09 08:26:28;;;;;;;5.30;4.80;;;12.60;99.90;;;;;;5029086;28;20203;-67
2022/10/09 08:29:04;;;;;;;5.45;4.90;;;12.80;99.90;;;;;;5029520;28;20651;-67
2022/10/09 08:31:30;;;;;;;7.53;5.20;;;13.50;99.90;;;;;;5028543;28;20272;-67
2022/10/09 08:33:58;;;;;;;5.13;4.40;;;13.20;99.90;;;;;;5032202;28;20194;-67
2022/10/09 08:36:24;;;;;;;5.40;4.75;;;13.20;99.90;;;;;;5026408;28;20226;-67
2022/10/09 08:38:50;;;;;;;8.13;5.28;;;13.30;99.90;;;;;;5029081;28;20425;-67
2022/10/09 08:41:50;;;;;;;5.60;4.80;;;13.50;99.90;;;;;;5028046;28;20185;-67
2022/10/09 08:44:30;;;;;;;5.55;5.05;;;13.40;99.90;;;;;;5029686;28;20512;-67
2022/10/09 08:47:17;;;;;;;5.22;4.72;;;13.50;99.90;;;;;;5030979;28;20202;-67
2022/10/09 08:50:07;;;;;;;6.63;4.78;;;13.30;99.90;;;;;;5025882;28;20269;-67
2022/10/09 08:53:12;;;;;;;5.65;5.00;;;13.50;99.90;;;;;;5031777;28;20210;-67
2022/10/09 08:55:48;;;;;;;5.40;4.80;;;13.40;99.90;;;;;;5028558;28;20201;-67
2022/10/09 08:58:16;;;;;;;7.22;5.10;;;13.70;99.90;;;;;;5028209;28;20264;-67
2022/10/09 09:00:47;;;;;;;6.00;5.43;;;13.80;99.90;;;;;;5029554;28;20625;-67
2022/10/09 09:03:43;;;;;;;4.50;4.10;;;13.80;99.90;;;;;;5031381;28;20201;-66
2022/10/09 09:06:24;;;;;;;5.22;4.72;;;13.90;99.90;;;;;;5023416;28;20256;-67
2022/10/09 09:09:27;;;;;;;7.70;4.63;;;13.60;99.90;;;;;;5028659;28;20886;-67
2022/10/09 09:12:02;;;;;;;4.97;4.53;;;13.70;99.90;;;;;;5028556;28;20635;-67
2022/10/09 09:15:04;;;;;;;3.78;3.40;;;14.20;99.90;;;;;;5029203;28;20181;-65
2022/10/09 09:17:36;;;;;;;4.72;3.88;;;14.40;99.90;;;;;;5005099;28;20193;-63
2022/10/09 09:20:19;;;;;;;4.53;3.90;;;14.30;99.90;;;;;;5028892;28;20189;-67
2022/10/09 09:22:49;;;;;;;4.05;3.75;;;14.60;99.90;;;;;;5028312;28;20229;-65
2022/10/09 09:25:23;;;;;;;3.00;2.70;;;14.70;99.90;;;;;;5026337;28;20499;-65
2022/10/09 09:27:52;;;;;;;3.13;2.70;;;15.10;97.90;;;;;;5025542;28;20213;-66
2022/10/09 09:30:23;;;;;;;4.22;2.63;;;15.30;97.70;;;;;;5028532;28;20192;-63
2022/10/09 09:33:14;;;;;;;4.40;2.92;;;15.50;95.50;;;;;;5027133;28;20193;-65
2022/10/09 09:36:09;;;;;;;3.55;2.65;;;15.80;95.10;;;;;;5033177;28;21048;-67
2022/10/09 09:38:35;;;;;;;3.60;2.55;;;16.20;94.90;;;;;;5026526;28;20186;-65
2022/10/09 09:41:03;;;;;;;3.80;2.47;;;16.80;94.60;;;;;;5024420;28;20752;-66
2022/10/09 09:43:29;;;;;;;3.03;2.45;;;17.20;92.30;;;;;;5029658;28;20544;-63
2022/10/09 09:45:57;;;;;;;2.23;2.03;;;17.90;90.90;;;;;;5035070;28;20227;-66
2022/10/09 09:48:29;;;;;;;4.22;2.10;;;18.10;88.70;;;;;;5031301;28;20437;-66
2022/10/09 09:50:54;;;;;;;2.53;2.10;;;18.40;87.40;;;;;;5031573;28;20211;-66
2022/10/09 09:53:29;;;;;;;3.10;2.03;;;18.20;86.90;;;;;;5028633;28;20269;-67
2022/10/09 09:55:55;;;;;;;2.67;1.80;;;18.00;86.20;;;;;;5031070;28;20530;-68
2022/10/09 09:58:21;;;;;;;2.17;1.98;;;17.60;86.00;;;;;;5034436;28;20186;-71
2022/10/09 10:00:55;;;;;;;1.67;1.58;;;17.80;86.90;;;;;;5027906;28;20194;-67
2022/10/09 10:03:24;;;;;;;2.03;1.70;;;17.50;85.60;;;;;;5028034;28;20198;-68
2022/10/09 10:05:50;;;;;;;2.30;2.10;;;17.40;84.70;;;;;;5027725;28;20214;-69
2022/10/09 10:08:26;;;;;;;2.25;1.60;;;17.30;84.00;;;;;;5029808;28;20174;-68
2022/10/09 10:11:05;;;;;;;2.00;1.60;;;17.50;84.50;;;;;;5030222;28;20693;-68
2022/10/09 10:13:37;;;;;;;3.22;1.80;;;16.90;84.00;;;;;;5039561;28;20189;-65
2022/10/09 10:16:06;;;;;;;1.60;1.50;;;17.30;86.00;;;;;;5031209;28;20583;-69
2022/10/09 10:18:38;;;;;;;1.98;1.85;;;17.10;84.70;;;;;;5035850;28;20186;-68
2022/10/09 10:21:11;;;;;;;2.33;1.98;;;17.10;84.60;;;;;;5023369;28;20209;-68
2022/10/09 10:23:41;;;;;;;2.20;2.00;;;17.30;85.80;;;;;;5032838;28;20177;-69
2022/10/09 10:26:30;;;;;;;3.05;1.95;;;17.40;84.50;;;;;;5039464;28;20209;-68
2022/10/09 10:29:10;;;;;;;3.10;1.70;;;17.60;83.60;;;;;;5023849;28;20883;-67
2022/10/09 10:31:58;;;;;;;1.73;1.60;;;17.70;82.70;;;;;;5029439;28;20197;-67
2022/10/09 10:34:34;;;;;;;2.25;1.52;;;17.40;83.10;;;;;;5029181;28;20182;-67
2022/10/09 10:37:24;;;;;;;2.00;1.77;;;17.60;84.70;;;;;;5028808;28;20574;-68
2022/10/09 10:39:59;;;;;;;1.55;1.45;;;17.60;83.10;;;;;;4996611;28;20204;-67
2022/10/09 10:42:39;;;;;;;3.00;2.35;;;17.60;82.20;;;;;;5023262;28;20617;-68
2022/10/09 10:45:18;;;;;;;1.83;1.67;;;17.40;82.20;;;;;;5026315;28;20205;-67
2022/10/09 10:47:50;;;;;;;2.17;1.58;;;17.80;82.30;;;;;;5029190;28;20588;-67
2022/10/09 10:50:18;;;;;;;2.78;1.77;;;18.10;80.40;;;;;;5030457;28;20201;-68
2022/10/09 10:53:11;;;;;;;2.47;1.60;;;18.90;79.20;;;;;;5029334;28;20232;-69
2022/10/09 10:56:04;;;;;;;2.08;1.88;;;20.10;74.90;;;;;;5022091;28;20233;-68
2022/10/09 10:58:35;;;;;;;2.10;1.90;;;20.30;71.30;;;;;;5029537;28;20674;-67
2022/10/09 11:01:25;;;;;;;3.42;1.90;;;20.30;71.80;;;;;;5027815;28;20183;-68
2022/10/09 11:04:20;;;;;;;2.13;1.65;;;20.60;71.40;;;;;;5025537;28;20201;-70
2022/10/09 11:06:52;;;;;;;3.25;1.60;;;20.60;69.40;;;;;;5027282;28;20701;-68
2022/10/09 11:09:26;;;;;;;2.33;1.80;;;20.60;70.60;;;;;;5025411;28;20273;-67
2022/10/09 11:12:03;;;;;;;3.25;1.58;;;20.60;70.40;;;;;;5039998;28;20691;-67
2022/10/09 11:14:34;;;;;;;1.73;1.50;;;20.00;68.00;;;;;;5028070;28;20190;-68
2022/10/09 11:17:15;;;;;;;1.80;1.70;;;19.60;71.40;;;;;;5028945;28;20698;-68
2022/10/09 11:20:06;;;;;;;2.97;1.70;;;19.30;71.90;;;;;;5023901;28;20209;-67
2022/10/09 11:22:53;;;;;;;2.38;1.60;;;18.90;72.40;;;;;;5029569;28;20611;-67
2022/10/09 11:26:01;;;;;;;1.85;1.60;;;18.60;74.10;;;;;;5028823;28;20320;-66
2022/10/09 11:28:36;;;;;;;3.70;2.17;;;18.40;74.60;;;;;;5021046;28;20651;-67
2022/10/09 11:31:18;;;;;;;1.83;1.73;;;18.20;75.30;;;;;;5029446;28;20690;-67
2022/10/09 11:33:49;;;;;;;2.80;1.50;;;18.00;75.60;;;;;;5029334;28;20185;-67
2022/10/09 11:36:31;;;;;;;2.70;1.60;;;17.90;77.20;;;;;;5012754;28;20213;-68
2022/10/09 11:39:08;;;;;;;2.30;2.10;;;17.80;77.10;;;;;;5029741;28;20190;-67
2022/10/09 11:41:35;;;;;;;2.78;1.90;;;17.80;77.60;;;;;;5042634;28;20186;-66
2022/10/09 11:44:37;;;;;;;1.95;1.67;;;17.70;77.80;;;;;;5028841;28;20197;-68
2022/10/09 11:47:16;;;;;;;1.58;1.48;;;17.80;78.90;;;;;;5011306;28;20279;-67
2022/10/09 11:50:02;;;;;;;4.13;1.80;;;17.90;77.90;;;;;;5021548;28;20190;-68
2022/10/09 11:52:50;;;;;;;1.70;1.60;;;17.90;77.60;;;;;;5029659;28;20259;-67
2022/10/09 11:55:18;;;;;;;1.80;1.45;;;17.90;77.80;;;;;;5031771;28;20904;-68
2022/10/09 11:57:43;;;;;;;1.80;1.70;;;17.90;77.70;;;;;;5022577;28;20300;-67
2022/10/09 12:00:10;;;;;;;1.90;1.70;;;18.10;77.90;;;;;;5028781;28;20205;-67
2022/10/09 12:02:36;;;;;;;2.08;1.88;;;18.00;78.30;;;;;;5021947;28;20182;-70
2022/10/09 12:05:28;;;;;;;5.57;1.85;;;18.00;77.30;;;;;;5020122;28;20952;-67
2022/10/09 12:08:16;;;;;;;2.65;1.70;;;18.10;77.40;;;;;;5026659;28;20194;-66
2022/10/09 12:11:17;;;;;;;2.63;2.00;;;17.90;76.50;;;;;;5023068;28;20216;-67
2022/10/09 12:13:55;;;;;;;1.83;1.20;;;17.90;76.60;;;;;;5024792;28;20190;-67
2022/10/09 12:16:39;;;;;;;2.38;1.63;;;17.90;77.20;;;;;;5031530;28;20206;-67
2022/10/09 12:19:15;;;;;;;2.05;1.65;;;17.90;77.50;;;;;;5028646;28;20332;-68
2022/10/09 12:21:55;;;;;;;2.28;1.40;;;18.00;76.40;;;;;;5023804;28;20217;-67
2022/10/09 12:24:28;;;;;;;2.22;1.83;;;17.90;77.30;;;;;;5030937;28;20205;-67
2022/10/09 12:26:59;;;;;;;2.20;1.33;;;18.10;77.50;;;;;;5024972;28;20210;-69
2022/10/09 12:29:28;;;;;;;1.75;1.65;;;18.20;77.20;;;;;;5030020;28;20190;-68
2022/10/09 12:32:01;;;;;;;2.13;1.55;;;18.30;77.40;;;;;;5031723;28;20340;-69
2022/10/09 12:34:42;;;;;;;1.80;1.70;;;18.30;77.20;;;;;;5031780;28;20189;-68
2022/10/09 12:37:20;;;;;;;2.70;1.75;;;18.50;77.50;;;;;;5029965;28;20221;-68
2022/10/09 12:39:47;;;;;;;3.17;1.60;;;18.30;77.80;;;;;;5031974;28;20186;-67
2022/10/09 12:42:20;;;;;;;1.85;1.42;;;18.50;77.60;;;;;;5031335;28;20190;-68
2022/10/09 12:44:47;;;;;;;4.90;1.60;;;18.50;77.40;;;;;;5030852;28;20279;-67
2022/10/09 12:47:25;;;;;;;1.77;1.60;;;18.40;75.90;;;;;;5029343;28;20201;-67
2022/10/09 12:50:23;;;;;;;1.58;1.45;;;18.30;77.10;;;;;;5029621;28;20593;-67
2022/10/09 12:53:00;;;;;;;2.95;1.80;;;18.80;77.70;;;;;;5027904;28;20202;-66
2022/10/09 12:55:30;;;;;;;3.08;1.70;;;18.40;76.10;;;;;;5026062;28;20202;-67
2022/10/09 12:57:59;;;;;;;2.03;1.70;;;18.40;77.30;;;;;;5026994;28;20375;-68
2022/10/09 13:00:25;;;;;;;1.50;1.40;;;18.40;77.00;;;;;;5030858;28;20197;-65
2022/10/09 13:02:51;;;;;;;2.03;1.80;;;18.30;76.80;;;;;;5031458;28;20557;-66
2022/10/09 13:05:16;;;;;;;1.63;1.53;;;18.30;77.10;;;;;;5030470;28;20222;-66
2022/10/09 13:07:49;;;;;;;1.60;1.50;;;18.20;77.20;;;;;;5030463;28;20198;-66
2022/10/09 13:10:22;;;;;;;2.15;1.67;;;18.30;76.90;;;;;;5031703;28;20178;-64
2022/10/09 13:12:53;;;;;;;3.90;1.70;;;18.10;77.50;;;;;;5027671;28;20356;-64